Time;durP1;ratioP1;P1;durP2;ratioP2;P2;SDS_P1;SDS_P2;PMS_P1;PMS_P2;Temp;Humidity;BMP_temperature;BMP_pressure;BME280_temperature;BME280_humidity;BME280_pressure;Samples;Min_cycle;Max_cycle;Signal;HPM_P1;HPM_P2
2022/07/17 00:02:11;;;;;;;5.27;1.60;;;13.50;99.90;;;;;;5045319;28;20202;-68
2022/07/17 00:04:39;;;;;;;3.37;1.40;;;13.50;99.90;;;;;;5053874;28;20214;-68
2022/07/17 00:07:06;;;;;;;2.93;1.40;;;13.50;99.90;;;;;;5052036;28;20210;-67
2022/07/17 00:09:32;;;;;;;2.63;1.70;;;13.50;99.90;;;;;;5052309;28;20625;-67
2022/07/17 00:11:59;;;;;;;2.57;1.43;;;13.50;99.90;;;;;;5049906;28;20198;-68
2022/07/17 00:14:26;;;;;;;2.70;1.30;;;13.60;99.90;;;;;;5052465;28;20213;-68
2022/07/17 00:16:53;;;;;;;3.27;1.03;;;13.50;99.90;;;;;;5042736;28;20211;-68
2022/07/17 00:19:20;;;;;;;2.17;1.40;;;13.60;99.90;;;;;;5050961;28;20229;-68
2022/07/17 00:21:49;;;;;;;1.87;1.37;;;13.60;99.90;;;;;;5049305;28;20206;-68
2022/07/17 00:24:19;;;;;;;2.70;1.30;;;13.60;99.90;;;;;;5051206;28;20209;-69
2022/07/17 00:26:46;;;;;;;3.17;1.53;;;13.60;99.90;;;;;;5044292;28;20230;-68
2022/07/17 00:29:13;;;;;;;1.97;1.10;;;13.70;99.90;;;;;;5054199;28;20689;-68
2022/07/17 00:31:40;;;;;;;2.57;1.30;;;13.70;99.90;;;;;;5053159;28;20202;-67
2022/07/17 00:34:07;;;;;;;1.33;1.23;;;13.70;99.90;;;;;;5052485;28;20210;-68
2022/07/17 00:36:34;;;;;;;3.73;1.67;;;13.70;99.90;;;;;;5050844;28;20216;-67
2022/07/17 00:39:02;;;;;;;2.67;1.53;;;13.70;99.90;;;;;;5048564;28;20560;-68
2022/07/17 00:41:29;;;;;;;1.87;1.20;;;13.70;99.90;;;;;;5054399;28;20225;-68
2022/07/17 00:43:55;;;;;;;4.97;1.20;;;13.70;99.90;;;;;;5038673;28;20634;-68
2022/07/17 00:46:22;;;;;;;3.80;1.60;;;13.70;99.90;;;;;;5051269;28;20252;-67
2022/07/17 00:48:49;;;;;;;3.53;1.27;;;13.70;99.90;;;;;;5039676;28;20209;-67
2022/07/17 00:51:16;;;;;;;2.30;1.20;;;13.70;99.90;;;;;;5054478;28;20214;-67
2022/07/17 00:53:44;;;;;;;2.10;1.47;;;13.70;99.90;;;;;;5051780;28;20677;-67
2022/07/17 00:56:13;;;;;;;3.03;1.70;;;13.70;99.90;;;;;;5052583;28;20206;-68
2022/07/17 00:58:41;;;;;;;3.37;1.60;;;13.70;99.90;;;;;;5052866;28;20209;-67
2022/07/17 01:01:08;;;;;;;2.40;1.43;;;13.80;99.90;;;;;;5052281;28;20225;-67
2022/07/17 01:03:34;;;;;;;3.40;1.43;;;13.70;99.90;;;;;;5052469;28;20213;-67
2022/07/17 01:06:01;;;;;;;2.57;1.30;;;13.70;99.90;;;;;;5051565;28;20570;-66
2022/07/17 01:08:28;;;;;;;1.80;1.57;;;13.70;99.90;;;;;;5041468;28;20206;-67
2022/07/17 01:10:55;;;;;;;2.60;1.83;;;13.70;99.90;;;;;;5041055;28;20198;-67
2022/07/17 01:13:24;;;;;;;6.27;3.97;;;13.70;99.90;;;;;;5053887;28;20209;-68
2022/07/17 01:15:50;;;;;;;2.53;1.77;;;13.70;99.90;;;;;;5051030;28;20206;-67
2022/07/17 01:18:17;;;;;;;1.77;1.30;;;13.60;99.90;;;;;;5043896;28;20220;-67
2022/07/17 01:20:46;;;;;;;2.10;1.27;;;13.60;99.90;;;;;;5043181;28;20620;-67
2022/07/17 01:23:15;;;;;;;2.70;1.40;;;13.60;99.90;;;;;;5053084;28;20723;-67
2022/07/17 01:25:41;;;;;;;3.37;1.40;;;13.60;99.90;;;;;;5052348;28;20234;-68
2022/07/17 01:28:08;;;;;;;2.37;1.20;;;13.50;99.90;;;;;;5053088;28;20213;-67
2022/07/17 01:30:36;;;;;;;1.90;1.40;;;13.50;99.90;;;;;;5051398;28;20599;-69
2022/07/17 01:33:03;;;;;;;2.40;0.90;;;13.50;99.90;;;;;;5054466;28;20202;-68
2022/07/17 01:35:30;;;;;;;2.23;1.40;;;13.40;99.90;;;;;;5052454;28;20210;-67
2022/07/17 01:37:56;;;;;;;4.53;1.57;;;13.40;99.90;;;;;;5051547;28;20205;-68
2022/07/17 01:40:25;;;;;;;3.47;1.47;;;13.40;99.90;;;;;;5057417;28;20230;-68
2022/07/17 01:42:51;;;;;;;3.53;1.47;;;13.40;99.90;;;;;;5052683;28;20210;-67
2022/07/17 01:45:19;;;;;;;1.70;1.60;;;13.30;99.90;;;;;;5055651;28;20201;-67
2022/07/17 01:47:46;;;;;;;1.70;1.60;;;13.30;99.90;;;;;;5055716;28;20237;-67
2022/07/17 01:50:14;;;;;;;5.23;1.43;;;13.30;99.90;;;;;;5056402;28;20574;-67
2022/07/17 01:52:42;;;;;;;2.00;1.80;;;13.20;99.90;;;;;;5056093;28;20202;-67
2022/07/17 01:55:11;;;;;;;2.57;1.83;;;13.20;99.90;;;;;;5055786;28;20213;-68
2022/07/17 01:57:39;;;;;;;5.13;2.10;;;13.20;99.90;;;;;;5050956;28;20216;-67
2022/07/17 02:00:09;;;;;;;4.47;2.20;;;13.20;99.90;;;;;;5055091;28;20226;-67
2022/07/17 02:02:36;;;;;;;4.97;1.83;;;13.20;99.90;;;;;;5054999;28;20218;-67
2022/07/17 02:05:04;;;;;;;11.60;2.27;;;13.10;99.90;;;;;;5056022;28;20217;-67
2022/07/17 02:07:31;;;;;;;2.87;2.20;;;13.20;99.90;;;;;;5055559;28;20208;-67
2022/07/17 02:09:58;;;;;;;2.93;2.10;;;13.20;99.90;;;;;;5056582;28;20214;-67
2022/07/17 02:12:25;;;;;;;3.37;2.20;;;13.20;99.90;;;;;;5055805;28;20307;-67
2022/07/17 02:14:53;;;;;;;3.03;2.00;;;13.20;99.90;;;;;;5047440;28;20592;-68
2022/07/17 02:17:20;;;;;;;3.83;2.13;;;13.20;99.90;;;;;;5042828;28;20214;-67
2022/07/17 02:19:47;;;;;;;5.00;2.33;;;13.20;99.90;;;;;;5054214;28;20241;-68
2022/07/17 02:22:13;;;;;;;4.43;2.17;;;13.10;99.90;;;;;;5037056;28;20202;-68
2022/07/17 02:24:40;;;;;;;4.10;1.97;;;13.20;99.90;;;;;;5055015;28;20225;-67
2022/07/17 02:27:07;;;;;;;5.67;2.23;;;13.20;99.90;;;;;;5054366;28;20592;-67
2022/07/17 02:29:34;;;;;;;3.33;2.20;;;13.10;99.90;;;;;;5055203;28;20213;-67
2022/07/17 02:32:02;;;;;;;2.67;2.00;;;13.20;99.90;;;;;;5054401;28;20209;-68
2022/07/17 02:34:29;;;;;;;4.30;2.37;;;13.20;99.90;;;;;;5055716;28;20658;-67
2022/07/17 02:36:55;;;;;;;3.43;2.13;;;13.20;99.90;;;;;;5044916;28;20198;-67
2022/07/17 02:39:22;;;;;;;6.43;2.80;;;13.20;99.90;;;;;;5056219;28;20206;-68
2022/07/17 02:41:49;;;;;;;4.07;2.20;;;13.20;99.90;;;;;;5054452;28;20252;-68
2022/07/17 02:44:16;;;;;;;8.70;2.80;;;13.20;99.90;;;;;;5053542;28;20202;-68
2022/07/17 02:46:42;;;;;;;3.73;1.97;;;13.20;99.90;;;;;;5054579;28;20245;-69
2022/07/17 02:49:10;;;;;;;3.83;1.87;;;13.20;99.90;;;;;;5058030;28;20202;-68
2022/07/17 02:51:37;;;;;;;3.47;2.43;;;13.20;99.90;;;;;;5053740;28;20216;-67
2022/07/17 02:54:04;;;;;;;4.30;2.53;;;13.20;99.90;;;;;;5051815;28;20293;-67
2022/07/17 02:56:31;;;;;;;4.00;2.43;;;13.20;99.90;;;;;;5055982;28;20708;-68
2022/07/17 02:58:58;;;;;;;7.40;2.20;;;13.20;99.90;;;;;;5043309;28;20212;-68
2022/07/17 03:01:25;;;;;;;4.40;2.50;;;13.20;99.90;;;;;;5052404;28;20226;-68
2022/07/17 03:03:51;;;;;;;3.90;2.30;;;13.20;99.90;;;;;;5054196;28;20236;-68
2022/07/17 03:06:19;;;;;;;5.10;2.40;;;13.30;99.90;;;;;;5050306;28;20210;-67
2022/07/17 03:08:46;;;;;;;2.30;2.00;;;13.30;99.90;;;;;;5055968;28;20206;-67
2022/07/17 03:11:13;;;;;;;4.63;2.20;;;13.30;99.90;;;;;;5057416;28;20206;-67
2022/07/17 03:13:40;;;;;;;7.30;2.47;;;13.30;99.90;;;;;;5055304;28;20584;-67
2022/07/17 03:16:07;;;;;;;4.63;2.30;;;13.30;99.90;;;;;;5040892;28;20217;-67
2022/07/17 03:18:34;;;;;;;4.07;2.30;;;13.40;99.90;;;;;;5056015;28;20210;-67
2022/07/17 03:21:01;;;;;;;4.87;2.40;;;13.40;99.90;;;;;;5053724;28;20214;-67
2022/07/17 03:23:29;;;;;;;5.73;2.27;;;13.40;99.90;;;;;;5055193;28;20536;-68
2022/07/17 03:25:56;;;;;;;2.70;2.17;;;13.40;99.90;;;;;;5055648;28;20249;-67
2022/07/17 03:28:23;;;;;;;4.87;2.30;;;13.50;99.90;;;;;;5055176;28;20223;-67
2022/07/17 03:30:50;;;;;;;4.27;2.27;;;13.50;99.90;;;;;;5055341;28;20899;-67
2022/07/17 03:33:17;;;;;;;2.50;1.83;;;13.50;99.90;;;;;;5053370;28;20217;-69
2022/07/17 03:35:43;;;;;;;4.70;2.20;;;13.50;99.90;;;;;;5052137;28;20214;-66
2022/07/17 03:38:10;;;;;;;3.07;1.83;;;13.60;99.90;;;;;;5037502;28;20217;-67
2022/07/17 03:40:38;;;;;;;3.43;2.27;;;13.60;99.90;;;;;;5034442;28;20230;-68
2022/07/17 03:43:06;;;;;;;5.20;2.10;;;13.60;99.90;;;;;;5050137;28;20248;-68
2022/07/17 03:45:32;;;;;;;6.20;1.90;;;13.60;99.90;;;;;;5054572;28;20642;-67
2022/07/17 03:47:59;;;;;;;2.10;1.90;;;13.70;99.90;;;;;;5053176;28;20269;-67
2022/07/17 03:50:26;;;;;;;3.53;2.30;;;13.70;99.90;;;;;;5053980;28;20272;-67
2022/07/17 03:52:53;;;;;;;5.07;2.30;;;13.80;99.90;;;;;;5054160;28;20309;-68
2022/07/17 03:55:20;;;;;;;5.07;2.17;;;13.70;99.90;;;;;;5042369;28;20198;-67
2022/07/17 03:57:48;;;;;;;3.40;2.10;;;13.80;99.90;;;;;;5055085;28;20232;-67
2022/07/17 04:00:15;;;;;;;5.60;2.20;;;13.80;99.90;;;;;;5053379;28;20210;-67
2022/07/17 04:02:43;;;;;;;5.67;2.00;;;13.90;99.90;;;;;;5055205;28;20205;-68
2022/07/17 04:05:11;;;;;;;4.70;2.60;;;13.90;99.90;;;;;;5053979;28;20210;-67
2022/07/17 04:07:38;;;;;;;5.57;2.07;;;13.90;99.90;;;;;;5047650;28;20544;-67
2022/07/17 04:10:06;;;;;;;4.97;2.20;;;13.90;99.90;;;;;;5044929;28;20663;-68
2022/07/17 04:12:33;;;;;;;3.37;2.40;;;13.90;99.90;;;;;;5053589;28;20657;-68
2022/07/17 04:15:01;;;;;;;2.57;2.07;;;13.90;99.90;;;;;;5055111;28;20631;-68
2022/07/17 04:17:28;;;;;;;2.50;2.30;;;13.90;99.90;;;;;;5045922;28;20210;-67
2022/07/17 04:19:55;;;;;;;4.00;2.20;;;13.90;99.90;;;;;;5051583;28;20206;-67
2022/07/17 04:22:22;;;;;;;3.07;1.97;;;13.90;99.90;;;;;;5048519;28;20236;-66
2022/07/17 04:24:49;;;;;;;3.50;2.13;;;13.90;99.90;;;;;;5053915;28;20659;-67
2022/07/17 04:27:16;;;;;;;4.13;2.23;;;14.00;99.90;;;;;;5051713;28;20202;-68
2022/07/17 04:29:42;;;;;;;8.30;3.10;;;14.00;99.90;;;;;;5053247;28;20202;-67
2022/07/17 04:32:11;;;;;;;6.13;2.10;;;14.10;99.90;;;;;;5054157;28;20212;-68
2022/07/17 04:34:38;;;;;;;2.80;2.23;;;14.20;99.90;;;;;;5054519;28;20210;-68
2022/07/17 04:37:05;;;;;;;3.67;2.40;;;14.20;99.90;;;;;;5052685;28;20217;-68
2022/07/17 04:39:32;;;;;;;4.20;2.10;;;14.30;99.90;;;;;;5054438;28;20209;-67
2022/07/17 04:41:59;;;;;;;3.37;2.13;;;14.30;99.90;;;;;;5053722;28;20222;-68
2022/07/17 04:44:25;;;;;;;4.07;2.63;;;14.30;99.90;;;;;;5054103;28;20679;-68
2022/07/17 04:46:52;;;;;;;2.00;1.80;;;14.40;99.90;;;;;;5038169;28;20240;-68
2022/07/17 04:49:20;;;;;;;4.30;1.97;;;14.40;99.90;;;;;;5042672;28;20213;-69
2022/07/17 04:51:47;;;;;;;3.90;2.23;;;14.50;99.90;;;;;;5049467;28;20259;-68
2022/07/17 04:54:14;;;;;;;4.37;2.23;;;14.50;99.90;;;;;;5054379;28;20599;-68
2022/07/17 04:56:41;;;;;;;3.57;2.00;;;14.50;99.90;;;;;;5053966;28;20218;-68
2022/07/17 04:59:08;;;;;;;4.67;2.50;;;14.50;99.90;;;;;;5054024;28;20937;-69
2022/07/17 05:01:34;;;;;;;4.67;1.93;;;14.60;99.90;;;;;;5053643;28;20232;-68
2022/07/17 05:04:02;;;;;;;2.40;1.83;;;14.60;99.90;;;;;;5055345;28;20229;-67
2022/07/17 05:06:30;;;;;;;2.93;1.80;;;14.70;99.90;;;;;;5055392;28;20205;-68
2022/07/17 05:08:57;;;;;;;3.27;1.63;;;14.80;99.90;;;;;;5053490;28;20209;-67
2022/07/17 05:11:24;;;;;;;3.87;1.90;;;14.90;99.90;;;;;;5056538;28;20208;-67
2022/07/17 05:13:50;;;;;;;3.07;1.67;;;15.10;99.90;;;;;;5056182;28;20213;-68
2022/07/17 05:16:17;;;;;;;1.87;1.30;;;15.20;99.90;;;;;;5057927;28;20206;-67
2022/07/17 05:18:44;;;;;;;3.20;1.50;;;15.30;99.90;;;;;;5056701;28;20209;-67
2022/07/17 05:21:11;;;;;;;2.70;1.57;;;15.30;99.90;;;;;;5050451;28;20229;-69
2022/07/17 05:23:39;;;;;;;2.53;1.57;;;15.40;99.90;;;;;;5057932;28;20216;-68
2022/07/17 05:26:06;;;;;;;2.80;1.63;;;15.40;99.90;;;;;;5057853;28;20681;-68
2022/07/17 05:28:33;;;;;;;5.37;1.63;;;15.40;99.90;;;;;;5057055;28;20572;-69
2022/07/17 05:31:00;;;;;;;3.93;1.87;;;15.30;99.90;;;;;;5055331;28;20198;-69
2022/07/17 05:33:26;;;;;;;6.37;1.80;;;15.30;99.90;;;;;;5052844;28;20214;-67
2022/07/17 05:35:53;;;;;;;5.07;1.40;;;15.30;99.90;;;;;;5054202;28;20220;-67
2022/07/17 05:38:20;;;;;;;5.47;1.93;;;15.40;99.90;;;;;;5055641;28;20206;-68
2022/07/17 05:40:50;;;;;;;7.73;1.97;;;15.40;99.90;;;;;;5057066;28;20232;-68
2022/07/17 05:43:17;;;;;;;3.00;1.50;;;15.50;99.90;;;;;;5057995;28;20214;-69
2022/07/17 05:45:44;;;;;;;2.17;1.63;;;15.60;99.90;;;;;;5058921;28;20603;-67
2022/07/17 05:48:11;;;;;;;2.33;1.50;;;15.60;99.90;;;;;;5055958;28;20244;-68
2022/07/17 05:50:38;;;;;;;4.60;2.00;;;15.70;99.90;;;;;;5049266;28;20221;-68
2022/07/17 05:53:04;;;;;;;3.17;1.17;;;15.70;99.90;;;;;;5056524;28;20202;-68
2022/07/17 05:55:31;;;;;;;2.37;1.40;;;15.80;99.90;;;;;;5051629;28;20201;-68
2022/07/17 05:57:59;;;;;;;5.80;1.80;;;15.90;99.90;;;;;;5056972;28;20593;-67
2022/07/17 06:00:26;;;;;;;3.87;1.97;;;16.00;99.90;;;;;;5053115;28;20213;-67
2022/07/17 06:02:53;;;;;;;5.83;1.90;;;16.10;99.90;;;;;;5054474;28;20678;-68
2022/07/17 06:05:20;;;;;;;3.53;1.77;;;16.10;99.90;;;;;;5057351;28;20202;-68
2022/07/17 06:07:47;;;;;;;5.70;1.93;;;16.10;99.90;;;;;;5037628;28;20210;-68
2022/07/17 06:10:14;;;;;;;4.93;1.40;;;16.10;99.90;;;;;;5039043;28;20297;-68
2022/07/17 06:12:41;;;;;;;4.20;1.80;;;16.20;99.90;;;;;;5055539;28;20289;-69
2022/07/17 06:15:10;;;;;;;7.63;1.90;;;16.20;99.90;;;;;;5046583;28;20654;-68
2022/07/17 06:17:37;;;;;;;4.00;1.90;;;16.30;99.90;;;;;;5054765;28;20209;-68
2022/07/17 06:20:05;;;;;;;4.70;1.53;;;16.30;99.90;;;;;;5050953;28;20215;-68
2022/07/17 06:22:31;;;;;;;3.83;1.70;;;16.30;99.90;;;;;;5050836;28;20229;-68
2022/07/17 06:24:58;;;;;;;2.27;1.60;;;16.40;99.90;;;;;;5042490;28;20326;-68
2022/07/17 06:27:25;;;;;;;7.20;2.00;;;16.50;99.90;;;;;;5047845;28;20213;-67
2022/07/17 06:29:52;;;;;;;4.70;1.57;;;16.50;99.90;;;;;;5046481;28;20685;-68
2022/07/17 06:32:20;;;;;;;5.67;1.90;;;16.60;99.90;;;;;;5043862;28;20682;-67
2022/07/17 06:34:47;;;;;;;3.00;1.57;;;16.70;99.90;;;;;;5050416;28;20666;-68
2022/07/17 06:37:14;;;;;;;5.05;1.73;;;16.70;99.90;;;;;;5044410;28;20213;-67
2022/07/17 06:39:40;;;;;;;7.00;1.60;;;16.80;99.90;;;;;;5046016;28;20285;-68
2022/07/17 06:42:07;;;;;;;3.65;1.65;;;16.90;99.90;;;;;;5043808;28;20214;-67
2022/07/17 06:44:34;;;;;;;7.30;1.75;;;16.80;99.90;;;;;;5049081;28;20201;-68
2022/07/17 06:47:01;;;;;;;5.73;1.50;;;16.80;99.90;;;;;;5053552;28;20396;-67
2022/07/17 06:49:29;;;;;;;4.82;1.92;;;16.80;99.90;;;;;;5056494;28;20224;-67
2022/07/17 06:51:56;;;;;;;3.45;1.45;;;16.80;99.90;;;;;;5056096;28;20202;-68
2022/07/17 06:54:25;;;;;;;3.90;2.00;;;17.00;99.90;;;;;;5049706;28;20206;-67
2022/07/17 06:56:52;;;;;;;5.82;2.58;;;17.00;99.90;;;;;;5037468;28;20218;-68
2022/07/17 06:59:19;;;;;;;2.63;2.00;;;17.10;99.90;;;;;;5053610;28;20206;-68
2022/07/17 07:01:46;;;;;;;5.15;2.63;;;17.20;99.90;;;;;;5056559;28;20249;-68
2022/07/17 07:04:13;;;;;;;6.65;2.90;;;17.20;99.90;;;;;;5053669;28;20585;-69
2022/07/17 07:06:41;;;;;;;6.13;3.67;;;17.30;99.90;;;;;;5052482;28;20205;-68
2022/07/17 07:09:09;;;;;;;5.57;3.20;;;17.40;99.90;;;;;;5049553;28;20233;-70
2022/07/17 07:11:37;;;;;;;3.55;2.72;;;17.40;99.90;;;;;;5047148;28;20257;-69
2022/07/17 07:14:03;;;;;;;6.88;2.33;;;17.40;99.90;;;;;;5053020;28;20206;-68
2022/07/17 07:16:30;;;;;;;5.28;2.83;;;17.40;99.90;;;;;;5050630;28;20210;-69
2022/07/17 07:18:57;;;;;;;4.13;2.78;;;17.40;99.90;;;;;;5056191;28;20225;-68
2022/07/17 07:21:26;;;;;;;4.63;3.60;;;17.50;99.90;;;;;;5055178;28;20209;-67
2022/07/17 07:23:54;;;;;;;5.80;3.10;;;17.60;99.90;;;;;;5047814;28;20213;-67
2022/07/17 07:26:21;;;;;;;5.07;3.10;;;17.60;99.90;;;;;;5053007;28;20225;-69
2022/07/17 07:28:48;;;;;;;4.45;2.92;;;17.70;99.90;;;;;;5054220;28;20205;-68
2022/07/17 07:31:16;;;;;;;3.92;2.83;;;17.70;99.90;;;;;;5050436;28;20214;-69
2022/07/17 07:33:44;;;;;;;6.28;2.80;;;17.70;99.90;;;;;;5046717;28;20225;-70
2022/07/17 07:36:11;;;;;;;6.35;2.80;;;17.80;99.90;;;;;;5046604;28;20206;-69
2022/07/17 07:38:38;;;;;;;5.68;2.88;;;17.80;99.90;;;;;;5052113;28;20210;-70
2022/07/17 07:41:06;;;;;;;5.72;3.08;;;17.80;99.90;;;;;;5046267;28;20206;-69
2022/07/17 07:43:33;;;;;;;5.25;2.92;;;17.90;99.90;;;;;;5042942;28;20229;-67
2022/07/17 07:46:00;;;;;;;4.75;3.08;;;17.90;99.90;;;;;;5049748;28;20220;-68
2022/07/17 07:48:26;;;;;;;4.43;3.17;;;17.90;99.90;;;;;;5053896;28;20217;-68
2022/07/17 07:50:53;;;;;;;4.63;2.60;;;18.00;99.90;;;;;;5054720;28;20645;-68
2022/07/17 07:53:20;;;;;;;4.53;2.60;;;18.10;99.90;;;;;;5055009;28;20839;-69
2022/07/17 07:55:47;;;;;;;7.20;2.60;;;18.30;99.90;;;;;;5046386;28;20593;-68
2022/07/17 07:58:15;;;;;;;7.13;2.67;;;18.50;99.90;;;;;;5050760;28;20194;-67
2022/07/17 08:00:45;;;;;;;3.88;2.72;;;18.60;99.90;;;;;;5037498;28;20199;-66
2022/07/17 08:03:11;;;;;;;5.03;2.08;;;18.60;99.90;;;;;;5053273;28;20229;-67
2022/07/17 08:05:38;;;;;;;5.82;3.60;;;18.70;99.90;;;;;;5050216;28;20214;-66
2022/07/17 08:08:06;;;;;;;2.92;2.60;;;18.70;99.90;;;;;;5045959;28;20655;-69
2022/07/17 08:10:33;;;;;;;6.13;2.28;;;18.80;99.90;;;;;;5045737;28;20289;-67
2022/07/17 08:12:59;;;;;;;2.92;2.00;;;18.90;99.90;;;;;;5045161;28;20206;-67
2022/07/17 08:15:28;;;;;;;3.05;2.10;;;19.00;99.90;;;;;;5047583;28;20213;-68
2022/07/17 08:17:55;;;;;;;3.33;2.30;;;19.10;99.90;;;;;;5054100;28;20198;-66
2022/07/17 08:20:23;;;;;;;8.50;2.40;;;19.10;99.90;;;;;;5053133;28;20209;-67
2022/07/17 08:22:50;;;;;;;3.10;1.67;;;19.20;99.90;;;;;;5054003;28;20226;-66
2022/07/17 08:25:17;;;;;;;2.88;1.70;;;19.20;99.90;;;;;;5051641;28;20716;-67
2022/07/17 08:27:44;;;;;;;3.65;2.45;;;19.30;99.90;;;;;;5050869;28;20645;-67
2022/07/17 08:30:14;;;;;;;3.17;2.30;;;19.50;99.90;;;;;;5052779;28;20201;-65
2022/07/17 08:32:43;;;;;;;2.30;1.60;;;19.60;99.90;;;;;;5053213;28;20207;-68
2022/07/17 08:35:11;;;;;;;3.47;1.92;;;19.70;99.90;;;;;;5051144;28;20643;-67
2022/07/17 08:37:45;;;;;;;3.13;1.73;;;19.80;99.90;;;;;;5044588;28;20206;-67
2022/07/17 08:40:20;;;;;;;3.45;1.80;;;19.90;99.90;;;;;;5050394;28;20736;-66
2022/07/17 08:42:47;;;;;;;2.95;1.50;;;20.00;99.90;;;;;;5047377;28;20217;-67
2022/07/17 08:45:14;;;;;;;2.50;1.52;;;20.00;99.90;;;;;;5050695;28;20205;-67
2022/07/17 08:47:42;;;;;;;5.32;1.90;;;20.10;99.90;;;;;;5045733;28;20237;-67
2022/07/17 08:50:10;;;;;;;4.13;1.60;;;20.20;99.90;;;;;;5059065;28;20208;-66
2022/07/17 08:52:38;;;;;;;3.30;1.67;;;20.30;99.90;;;;;;5055684;28;20202;-66
2022/07/17 08:55:08;;;;;;;3.63;1.55;;;20.40;99.90;;;;;;5051784;28;20205;-66
2022/07/17 08:57:38;;;;;;;4.10;1.40;;;20.60;99.90;;;;;;5055282;28;20213;-68
2022/07/17 09:00:06;;;;;;;4.10;1.67;;;20.80;99.90;;;;;;5057481;28;20205;-66
2022/07/17 09:02:33;;;;;;;3.65;1.60;;;21.00;99.90;;;;;;5048022;28;21326;-64
2022/07/17 09:05:01;;;;;;;1.67;1.30;;;21.20;99.90;;;;;;5056412;28;20241;-66
2022/07/17 09:07:28;;;;;;;3.53;1.30;;;21.30;99.90;;;;;;5047846;28;20680;-65
2022/07/17 09:09:55;;;;;;;1.60;1.02;;;21.30;99.90;;;;;;5046476;28;20203;-68
2022/07/17 09:12:26;;;;;;;2.50;1.00;;;21.30;99.90;;;;;;5046218;28;20599;-67
2022/07/17 09:14:52;;;;;;;2.15;1.20;;;21.50;99.90;;;;;;5056190;28;20244;-68
2022/07/17 09:17:19;;;;;;;3.72;1.20;;;21.70;99.90;;;;;;5055267;28;20205;-68
2022/07/17 09:19:46;;;;;;;0.88;0.88;;;21.90;99.90;;;;;;5051661;28;20237;-68
2022/07/17 09:22:17;;;;;;;1.30;1.15;;;22.00;99.90;;;;;;5048913;28;20218;-67
2022/07/17 09:24:47;;;;;;;2.90;0.90;;;21.90;99.90;;;;;;5053504;28;20221;-68
2022/07/17 09:27:17;;;;;;;1.25;0.85;;;21.90;99.90;;;;;;5055521;28;20209;-67
2022/07/17 09:29:55;;;;;;;1.73;1.00;;;22.00;99.90;;;;;;5053589;28;20202;-68
2022/07/17 09:32:24;;;;;;;2.67;1.15;;;21.90;99.90;;;;;;5050043;28;20199;-69
2022/07/17 09:34:51;;;;;;;3.08;1.23;;;21.80;99.90;;;;;;5046304;28;20206;-67
2022/07/17 09:37:19;;;;;;;1.00;1.00;;;21.80;99.90;;;;;;5049229;28;20207;-67
2022/07/17 09:39:46;;;;;;;2.17;1.10;;;22.10;99.90;;;;;;5046537;28;20293;-68
2022/07/17 09:42:23;;;;;;;1.25;0.93;;;22.40;99.90;;;;;;5040657;28;20221;-69
2022/07/17 09:44:56;;;;;;;0.88;0.80;;;22.60;99.20;;;;;;5044826;28;20273;-68
2022/07/17 09:47:24;;;;;;;1.13;0.90;;;22.70;98.00;;;;;;5038469;28;20238;-70
2022/07/17 09:49:53;;;;;;;2.45;0.95;;;22.80;98.20;;;;;;5044662;28;20240;-68
2022/07/17 09:52:23;;;;;;;4.35;1.10;;;23.10;97.30;;;;;;5045526;28;20302;-68
2022/07/17 09:54:53;;;;;;;1.55;0.88;;;23.30;95.90;;;;;;5050262;28;20216;-69
2022/07/17 09:57:21;;;;;;;3.60;0.95;;;23.40;94.60;;;;;;5050728;28;20212;-67
2022/07/17 09:59:49;;;;;;;2.97;0.98;;;23.50;93.80;;;;;;5048142;28;20229;-68
2022/07/17 10:02:16;;;;;;;1.90;0.70;;;23.50;93.20;;;;;;5043121;28;20210;-69
2022/07/17 10:04:43;;;;;;;1.35;0.90;;;23.30;92.40;;;;;;5054738;28;20206;-68
2022/07/17 10:07:10;;;;;;;0.77;0.75;;;23.10;91.40;;;;;;5048581;28;20205;-67
2022/07/17 10:09:39;;;;;;;2.97;0.63;;;22.90;90.90;;;;;;5040627;28;20226;-68
2022/07/17 10:12:07;;;;;;;1.60;0.90;;;22.70;91.00;;;;;;5042859;28;20210;-70
2022/07/17 10:14:35;;;;;;;1.88;1.00;;;22.50;91.40;;;;;;5048227;28;20202;-67
2022/07/17 10:17:07;;;;;;;2.22;1.35;;;22.20;92.30;;;;;;5050536;28;20198;-69
2022/07/17 10:19:34;;;;;;;2.20;0.98;;;22.00;93.40;;;;;;5051340;28;20199;-68
2022/07/17 10:22:05;;;;;;;0.75;0.75;;;22.00;94.10;;;;;;5042336;28;20210;-68
2022/07/17 10:24:32;;;;;;;1.40;0.95;;;22.20;94.70;;;;;;5044096;28;20214;-68
2022/07/17 10:27:01;;;;;;;1.65;1.13;;;22.40;95.10;;;;;;5051100;28;20233;-68
2022/07/17 10:29:31;;;;;;;1.13;0.85;;;22.70;95.10;;;;;;5039692;28;20624;-67
2022/07/17 10:31:59;;;;;;;1.15;0.93;;;23.10;94.30;;;;;;5041995;28;20630;-68
2022/07/17 10:34:40;;;;;;;2.15;1.00;;;23.30;93.00;;;;;;5050847;28;20205;-67
2022/07/17 10:37:19;;;;;;;2.38;1.00;;;23.40;92.00;;;;;;5050273;28;20670;-69
2022/07/17 10:39:57;;;;;;;1.35;0.63;;;23.30;91.20;;;;;;5045655;28;20201;-72
2022/07/17 10:42:46;;;;;;;2.35;0.73;;;23.20;91.10;;;;;;5052297;28;20206;-68
2022/07/17 10:45:14;;;;;;;3.78;1.42;;;23.10;91.30;;;;;;5052108;28;20284;-72
2022/07/17 10:47:50;;;;;;;0.85;0.73;;;23.20;91.10;;;;;;5051095;28;20616;-70
2022/07/17 10:50:19;;;;;;;2.67;1.25;;;23.50;91.10;;;;;;5057376;28;20202;-67
2022/07/17 10:52:56;;;;;;;1.30;0.70;;;23.80;90.50;;;;;;5054426;28;20210;-68
2022/07/17 10:55:23;;;;;;;4.15;0.95;;;23.90;90.20;;;;;;5053363;28;20198;-68
2022/07/17 10:57:51;;;;;;;2.22;1.45;;;23.80;90.00;;;;;;5050915;28;20206;-68
2022/07/17 11:00:19;;;;;;;1.55;1.15;;;23.70;90.10;;;;;;5055602;28;20210;-68
2022/07/17 11:02:46;;;;;;;1.85;1.25;;;23.50;90.40;;;;;;5044490;28;20593;-68
2022/07/17 11:05:15;;;;;;;2.83;1.15;;;23.30;89.90;;;;;;5050859;28;20228;-68
2022/07/17 11:07:53;;;;;;;2.03;1.10;;;23.10;89.20;;;;;;5045883;28;20209;-68
2022/07/17 11:10:20;;;;;;;1.10;1.00;;;22.90;89.50;;;;;;5048081;28;20253;-69
2022/07/17 11:12:47;;;;;;;1.73;1.20;;;22.60;90.00;;;;;;5048635;28;20754;-68
2022/07/17 11:15:15;;;;;;;2.80;1.25;;;22.40;90.50;;;;;;5053580;28;20218;-68
2022/07/17 11:17:46;;;;;;;1.88;1.02;;;22.30;91.00;;;;;;5044598;28;20198;-69
2022/07/17 11:20:13;;;;;;;1.90;1.15;;;22.30;91.50;;;;;;5044461;28;20251;-69
2022/07/17 11:22:40;;;;;;;3.08;1.10;;;22.20;91.40;;;;;;5048058;28;20205;-69
2022/07/17 11:25:09;;;;;;;2.58;1.23;;;22.30;91.30;;;;;;5047901;28;20226;-68
2022/07/17 11:27:38;;;;;;;3.70;1.30;;;22.20;91.20;;;;;;5046848;28;20272;-67
2022/07/17 11:30:10;;;;;;;1.30;1.10;;;22.10;90.90;;;;;;5040976;28;20236;-68
2022/07/17 11:32:40;;;;;;;3.42;1.23;;;21.90;90.80;;;;;;5052800;28;20202;-68
2022/07/17 11:35:16;;;;;;;2.95;1.35;;;21.80;91.10;;;;;;5050042;28;20704;-68
2022/07/17 11:37:43;;;;;;;3.10;1.08;;;21.70;91.40;;;;;;5055308;28;20209;-66
2022/07/17 11:40:10;;;;;;;3.60;0.80;;;21.60;91.20;;;;;;5040335;28;20217;-67
2022/07/17 11:42:37;;;;;;;1.17;1.00;;;21.50;91.00;;;;;;5050339;28;20214;-69
2022/07/17 11:45:05;;;;;;;2.67;1.58;;;21.40;90.90;;;;;;5053059;28;20646;-67
2022/07/17 11:47:32;;;;;;;1.55;0.90;;;21.30;91.00;;;;;;5050503;28;20648;-66
2022/07/17 11:50:10;;;;;;;2.03;1.17;;;21.20;91.20;;;;;;5050746;28;20305;-66
2022/07/17 11:52:44;;;;;;;2.55;0.90;;;21.10;91.10;;;;;;5046017;28;20293;-66
2022/07/17 11:55:11;;;;;;;1.60;0.80;;;21.10;91.10;;;;;;5045412;28;20582;-67
2022/07/17 11:57:48;;;;;;;2.13;1.00;;;21.00;91.10;;;;;;5049976;28;20674;-68
2022/07/17 12:00:17;;;;;;;0.88;0.77;;;21.00;90.50;;;;;;5044400;28;20202;-68
2022/07/17 12:02:44;;;;;;;1.27;1.17;;;20.90;90.00;;;;;;5053997;28;20202;-67
2022/07/17 12:05:15;;;;;;;2.15;1.30;;;20.90;90.30;;;;;;5053923;28;20252;-65
2022/07/17 12:07:44;;;;;;;1.13;0.90;;;21.00;90.60;;;;;;5045953;28;20202;-67
2022/07/17 12:10:18;;;;;;;1.75;0.93;;;21.00;90.60;;;;;;5047692;28;20562;-67
2022/07/17 12:12:58;;;;;;;3.78;1.00;;;21.20;90.70;;;;;;5052732;28;20205;-66
2022/07/17 12:15:36;;;;;;;2.08;0.85;;;21.40;90.40;;;;;;5050477;28;20579;-66
2022/07/17 12:18:03;;;;;;;1.55;0.90;;;21.70;90.40;;;;;;5050637;28;20275;-66
2022/07/17 12:20:43;;;;;;;2.15;0.70;;;21.80;90.40;;;;;;5050817;28;20562;-66
2022/07/17 12:23:10;;;;;;;0.98;0.80;;;22.20;90.00;;;;;;5051627;28;20817;-67
2022/07/17 12:25:37;;;;;;;0.77;0.77;;;22.60;89.20;;;;;;5053300;28;20809;-65
2022/07/17 12:28:04;;;;;;;1.38;0.80;;;23.10;87.40;;;;;;5053989;28;20210;-67
2022/07/17 12:30:32;;;;;;;1.85;0.77;;;23.30;85.60;;;;;;5054125;28;20213;-67
2022/07/17 12:32:59;;;;;;;2.35;1.27;;;23.50;84.40;;;;;;5049673;28;20198;-66
2022/07/17 12:35:26;;;;;;;2.25;0.95;;;23.70;83.40;;;;;;5053618;28;20213;-69
2022/07/17 12:37:54;;;;;;;2.38;0.80;;;23.80;81.80;;;;;;5053925;28;20575;-68
2022/07/17 12:40:21;;;;;;;0.80;0.80;;;24.00;80.80;;;;;;5054382;28;20638;-69
2022/07/17 12:42:47;;;;;;;1.15;0.98;;;24.20;79.40;;;;;;5053293;28;20209;-67
2022/07/17 12:45:14;;;;;;;1.58;0.90;;;24.30;78.30;;;;;;5053820;28;20238;-68
2022/07/17 12:47:41;;;;;;;1.05;0.73;;;24.30;76.90;;;;;;5051722;28;20247;-70
2022/07/17 12:50:09;;;;;;;1.23;0.50;;;24.30;76.80;;;;;;5046565;28;20214;-68
2022/07/17 12:52:36;;;;;;;0.90;0.60;;;24.30;75.30;;;;;;5048872;28;20205;-66